sensor_id;sensor_type;location;lat;lon;timestamp;P1;durP1;ratioP1;P2;durP2;ratioP2
61471;SDS011;47337;54.068;12.114;2023-05-17T00:00:52;13.95;;;4.95;;
61471;SDS011;47337;54.068;12.114;2023-05-17T00:03:17;15.68;;;5.20;;
61471;SDS011;47337;54.068;12.114;2023-05-17T00:05:43;11.80;;;4.18;;
61471;SDS011;47337;54.068;12.114;2023-05-17T00:08:10;11.88;;;4.10;;
61471;SDS011;47337;54.068;12.114;2023-05-17T00:10:36;16.13;;;4.72;;
61471;SDS011;47337;54.068;12.114;2023-05-17T00:13:01;15.65;;;4.00;;
61471;SDS011;47337;54.068;12.114;2023-05-17T00:15:28;21.13;;;5.15;;
61471;SDS011;47337;54.068;12.114;2023-05-17T00:17:55;12.63;;;4.55;;
61471;SDS011;47337;54.068;12.114;2023-05-17T00:20:23;14.82;;;4.43;;
61471;SDS011;47337;54.068;12.114;2023-05-17T00:22:48;15.48;;;4.43;;
61471;SDS011;47337;54.068;12.114;2023-05-17T00:25:16;14.70;;;4.43;;
61471;SDS011;47337;54.068;12.114;2023-05-17T00:27:43;14.98;;;3.88;;
61471;SDS011;47337;54.068;12.114;2023-05-17T00:30:09;14.82;;;4.65;;
61471;SDS011;47337;54.068;12.114;2023-05-17T00:32:35;13.52;;;4.25;;
61471;SDS011;47337;54.068;12.114;2023-05-17T00:35:00;19.60;;;5.03;;
61471;SDS011;47337;54.068;12.114;2023-05-17T00:37:26;9.52;;;3.90;;
61471;SDS011;47337;54.068;12.114;2023-05-17T00:39:51;12.98;;;4.43;;
61471;SDS011;47337;54.068;12.114;2023-05-17T00:42:20;14.45;;;4.65;;
61471;SDS011;47337;54.068;12.114;2023-05-17T00:44:45;12.73;;;3.78;;
61471;SDS011;47337;54.068;12.114;2023-05-17T00:47:10;10.20;;;3.80;;
61471;SDS011;47337;54.068;12.114;2023-05-17T00:49:36;9.65;;;2.88;;
61471;SDS011;47337;54.068;12.114;2023-05-17T00:52:01;12.43;;;3.42;;
61471;SDS011;47337;54.068;12.114;2023-05-17T00:54:27;12.40;;;3.22;;
61471;SDS011;47337;54.068;12.114;2023-05-17T00:56:56;14.00;;;3.20;;
61471;SDS011;47337;54.068;12.114;2023-05-17T00:59:24;16.92;;;3.22;;
61471;SDS011;47337;54.068;12.114;2023-05-17T01:01:50;12.93;;;3.03;;
61471;SDS011;47337;54.068;12.114;2023-05-17T01:04:16;10.05;;;3.40;;
61471;SDS011;47337;54.068;12.114;2023-05-17T01:06:42;12.27;;;2.83;;
61471;SDS011;47337;54.068;12.114;2023-05-17T01:09:09;12.05;;;2.83;;
61471;SDS011;47337;54.068;12.114;2023-05-17T01:12:00;10.18;;;2.45;;
61471;SDS011;47337;54.068;12.114;2023-05-17T01:17:19;15.15;;;2.80;;
61471;SDS011;47337;54.068;12.114;2023-05-17T01:25:53;11.40;;;2.65;;
61471;SDS011;47337;54.068;12.114;2023-05-17T01:28:31;14.02;;;3.13;;
61471;SDS011;47337;54.068;12.114;2023-05-17T01:30:58;10.55;;;2.65;;
61471;SDS011;47337;54.068;12.114;2023-05-17T01:33:26;13.55;;;2.70;;
61471;SDS011;47337;54.068;12.114;2023-05-17T01:35:52;9.25;;;2.88;;
61471;SDS011;47337;54.068;12.114;2023-05-17T01:38:17;14.50;;;2.88;;
61471;SDS011;47337;54.068;12.114;2023-05-17T01:40:54;12.05;;;2.63;;
61471;SDS011;47337;54.068;12.114;2023-05-17T01:49:29;10.18;;;2.22;;
61471;SDS011;47337;54.068;12.114;2023-05-17T01:52:04;16.45;;;3.08;;
61471;SDS011;47337;54.068;12.114;2023-05-17T01:54:38;13.65;;;3.60;;
61471;SDS011;47337;54.068;12.114;2023-05-17T01:57:12;9.82;;;1.92;;
61471;SDS011;47337;54.068;12.114;2023-05-17T01:59:40;12.10;;;2.67;;
61471;SDS011;47337;54.068;12.114;2023-05-17T02:02:08;12.63;;;3.10;;
61471;SDS011;47337;54.068;12.114;2023-05-17T02:04:34;14.30;;;2.63;;
61471;SDS011;47337;54.068;12.114;2023-05-17T02:07:04;11.68;;;2.42;;
61471;SDS011;47337;54.068;12.114;2023-05-17T02:09:30;11.05;;;2.00;;
61471;SDS011;47337;54.068;12.114;2023-05-17T02:11:57;11.27;;;1.92;;
61471;SDS011;47337;54.068;12.114;2023-05-17T02:14:25;6.20;;;1.60;;
61471;SDS011;47337;54.068;12.114;2023-05-17T02:16:53;7.30;;;1.45;;
61471;SDS011;47337;54.068;12.114;2023-05-17T02:19:20;10.32;;;1.58;;
61471;SDS011;47337;54.068;12.114;2023-05-17T02:21:48;7.85;;;1.80;;
61471;SDS011;47337;54.068;12.114;2023-05-17T02:24:19;7.85;;;1.95;;
61471;SDS011;47337;54.068;12.114;2023-05-17T02:26:44;10.20;;;2.28;;
61471;SDS011;47337;54.068;12.114;2023-05-17T02:29:11;8.20;;;1.65;;
61471;SDS011;47337;54.068;12.114;2023-05-17T02:31:36;10.80;;;2.17;;
61471;SDS011;47337;54.068;12.114;2023-05-17T02:34:04;9.88;;;1.50;;
61471;SDS011;47337;54.068;12.114;2023-05-17T02:36:29;8.68;;;1.48;;
61471;SDS011;47337;54.068;12.114;2023-05-17T02:38:56;11.10;;;1.85;;
61471;SDS011;47337;54.068;12.114;2023-05-17T02:41:21;5.40;;;1.98;;
61471;SDS011;47337;54.068;12.114;2023-05-17T02:43:49;9.38;;;1.98;;
61471;SDS011;47337;54.068;12.114;2023-05-17T02:46:18;9.40;;;1.30;;
61471;SDS011;47337;54.068;12.114;2023-05-17T02:48:46;9.60;;;1.50;;
61471;SDS011;47337;54.068;12.114;2023-05-17T02:51:14;14.43;;;2.22;;
61471;SDS011;47337;54.068;12.114;2023-05-17T02:53:39;13.77;;;2.47;;
61471;SDS011;47337;54.068;12.114;2023-05-17T02:56:05;11.32;;;2.72;;
61471;SDS011;47337;54.068;12.114;2023-05-17T02:58:33;16.67;;;1.75;;
61471;SDS011;47337;54.068;12.114;2023-05-17T03:00:58;5.90;;;2.15;;
61471;SDS011;47337;54.068;12.114;2023-05-17T03:03:24;7.32;;;1.40;;
61471;SDS011;47337;54.068;12.114;2023-05-17T03:05:49;8.77;;;2.17;;
61471;SDS011;47337;54.068;12.114;2023-05-17T03:08:15;10.07;;;1.83;;
61471;SDS011;47337;54.068;12.114;2023-05-17T03:10:40;8.85;;;2.65;;
61471;SDS011;47337;54.068;12.114;2023-05-17T03:13:06;9.40;;;1.95;;
61471;SDS011;47337;54.068;12.114;2023-05-17T03:15:31;11.68;;;2.10;;
61471;SDS011;47337;54.068;12.114;2023-05-17T03:18:01;12.55;;;2.00;;
61471;SDS011;47337;54.068;12.114;2023-05-17T03:20:26;9.23;;;1.92;;
61471;SDS011;47337;54.068;12.114;2023-05-17T03:22:52;10.82;;;2.63;;
61471;SDS011;47337;54.068;12.114;2023-05-17T03:25:17;12.93;;;2.00;;
61471;SDS011;47337;54.068;12.114;2023-05-17T03:27:45;13.18;;;1.98;;
61471;SDS011;47337;54.068;12.114;2023-05-17T03:30:11;11.05;;;2.20;;
61471;SDS011;47337;54.068;12.114;2023-05-17T03:32:37;12.00;;;2.22;;
61471;SDS011;47337;54.068;12.114;2023-05-17T03:35:03;12.15;;;1.80;;
61471;SDS011;47337;54.068;12.114;2023-05-17T03:37:29;17.30;;;2.60;;
61471;SDS011;47337;54.068;12.114;2023-05-17T03:39:54;14.93;;;2.40;;
61471;SDS011;47337;54.068;12.114;2023-05-17T03:42:20;16.55;;;2.47;;
61471;SDS011;47337;54.068;12.114;2023-05-17T03:44:47;15.70;;;3.05;;
61471;SDS011;47337;54.068;12.114;2023-05-17T03:47:13;10.55;;;2.50;;
61471;SDS011;47337;54.068;12.114;2023-05-17T03:49:38;11.32;;;2.20;;
61471;SDS011;47337;54.068;12.114;2023-05-17T03:52:06;15.07;;;2.70;;
61471;SDS011;47337;54.068;12.114;2023-05-17T03:54:34;14.75;;;2.85;;
61471;SDS011;47337;54.068;12.114;2023-05-17T03:56:59;11.38;;;2.22;;
61471;SDS011;47337;54.068;12.114;2023-05-17T03:59:27;9.88;;;2.28;;
61471;SDS011;47337;54.068;12.114;2023-05-17T04:01:53;10.57;;;1.80;;
61471;SDS011;47337;54.068;12.114;2023-05-17T04:04:18;16.83;;;2.15;;
61471;SDS011;47337;54.068;12.114;2023-05-17T04:06:46;13.30;;;2.53;;
61471;SDS011;47337;54.068;12.114;2023-05-17T04:09:13;13.27;;;1.92;;
61471;SDS011;47337;54.068;12.114;2023-05-17T04:11:39;9.98;;;2.28;;
61471;SDS011;47337;54.068;12.114;2023-05-17T04:14:05;13.65;;;2.38;;
61471;SDS011;47337;54.068;12.114;2023-05-17T04:16:31;10.90;;;1.77;;
61471;SDS011;47337;54.068;12.114;2023-05-17T04:18:58;10.45;;;1.80;;
61471;SDS011;47337;54.068;12.114;2023-05-17T04:21:24;12.85;;;1.73;;
61471;SDS011;47337;54.068;12.114;2023-05-17T04:23:49;10.13;;;2.00;;
61471;SDS011;47337;54.068;12.114;2023-05-17T04:26:17;12.98;;;2.67;;
61471;SDS011;47337;54.068;12.114;2023-05-17T04:28:43;8.32;;;1.92;;
61471;SDS011;47337;54.068;12.114;2023-05-17T04:31:09;11.35;;;2.63;;
61471;SDS011;47337;54.068;12.114;2023-05-17T04:33:37;14.45;;;2.38;;
61471;SDS011;47337;54.068;12.114;2023-05-17T04:36:05;14.27;;;2.70;;
61471;SDS011;47337;54.068;12.114;2023-05-17T04:38:31;11.95;;;2.40;;
61471;SDS011;47337;54.068;12.114;2023-05-17T04:41:00;17.45;;;2.08;;
61471;SDS011;47337;54.068;12.114;2023-05-17T04:43:28;13.60;;;2.08;;
61471;SDS011;47337;54.068;12.114;2023-05-17T04:45:57;8.18;;;1.40;;
61471;SDS011;47337;54.068;12.114;2023-05-17T04:48:23;7.50;;;1.50;;
61471;SDS011;47337;54.068;12.114;2023-05-17T04:50:50;11.63;;;1.80;;
61471;SDS011;47337;54.068;12.114;2023-05-17T04:53:16;8.20;;;1.95;;
61471;SDS011;47337;54.068;12.114;2023-05-17T04:55:44;12.02;;;2.35;;
61471;SDS011;47337;54.068;12.114;2023-05-17T04:58:10;11.05;;;2.10;;
61471;SDS011;47337;54.068;12.114;2023-05-17T05:00:35;13.65;;;2.00;;
61471;SDS011;47337;54.068;12.114;2023-05-17T05:03:01;7.13;;;1.63;;
61471;SDS011;47337;54.068;12.114;2023-05-17T05:05:28;12.50;;;1.75;;
61471;SDS011;47337;54.068;12.114;2023-05-17T05:07:54;6.70;;;1.40;;
61471;SDS011;47337;54.068;12.114;2023-05-17T05:10:20;9.68;;;1.63;;
61471;SDS011;47337;54.068;12.114;2023-05-17T05:12:45;10.35;;;1.85;;
61471;SDS011;47337;54.068;12.114;2023-05-17T05:15:11;9.05;;;2.15;;
61471;SDS011;47337;54.068;12.114;2023-05-17T05:17:37;8.63;;;1.70;;
61471;SDS011;47337;54.068;12.114;2023-05-17T05:20:03;12.95;;;2.78;;
61471;SDS011;47337;54.068;12.114;2023-05-17T05:22:28;6.50;;;1.80;;
61471;SDS011;47337;54.068;12.114;2023-05-17T05:24:56;8.50;;;1.35;;
61471;SDS011;47337;54.068;12.114;2023-05-17T05:27:22;5.35;;;1.35;;
61471;SDS011;47337;54.068;12.114;2023-05-17T05:29:49;7.45;;;1.60;;
61471;SDS011;47337;54.068;12.114;2023-05-17T05:32:15;9.23;;;2.17;;
61471;SDS011;47337;54.068;12.114;2023-05-17T05:34:43;10.00;;;1.60;;
61471;SDS011;47337;54.068;12.114;2023-05-17T05:37:08;12.73;;;2.67;;
61471;SDS011;47337;54.068;12.114;2023-05-17T05:39:36;6.03;;;1.10;;
61471;SDS011;47337;54.068;12.114;2023-05-17T05:42:04;9.68;;;1.50;;
61471;SDS011;47337;54.068;12.114;2023-05-17T05:44:30;5.22;;;1.30;;
61471;SDS011;47337;54.068;12.114;2023-05-17T05:46:57;14.10;;;1.50;;
61471;SDS011;47337;54.068;12.114;2023-05-17T05:49:23;9.52;;;2.47;;
61471;SDS011;47337;54.068;12.114;2023-05-17T05:51:48;8.52;;;2.05;;
61471;SDS011;47337;54.068;12.114;2023-05-17T05:54:14;8.00;;;1.67;;
61471;SDS011;47337;54.068;12.114;2023-05-17T05:56:40;10.38;;;1.92;;
61471;SDS011;47337;54.068;12.114;2023-05-17T05:59:05;12.20;;;1.85;;
61471;SDS011;47337;54.068;12.114;2023-05-17T06:01:31;7.97;;;1.60;;
61471;SDS011;47337;54.068;12.114;2023-05-17T06:03:56;7.15;;;1.88;;
61471;SDS011;47337;54.068;12.114;2023-05-17T06:06:24;11.82;;;2.17;;
61471;SDS011;47337;54.068;12.114;2023-05-17T06:08:49;6.72;;;1.80;;
61471;SDS011;47337;54.068;12.114;2023-05-17T06:11:17;7.82;;;2.17;;
61471;SDS011;47337;54.068;12.114;2023-05-17T06:13:46;9.45;;;2.47;;
61471;SDS011;47337;54.068;12.114;2023-05-17T06:16:11;6.10;;;1.58;;
61471;SDS011;47337;54.068;12.114;2023-05-17T06:18:37;5.30;;;1.08;;
61471;SDS011;47337;54.068;12.114;2023-05-17T06:21:05;11.95;;;2.40;;
61471;SDS011;47337;54.068;12.114;2023-05-17T06:23:32;9.68;;;1.88;;
61471;SDS011;47337;54.068;12.114;2023-05-17T06:25:58;7.07;;;1.15;;
61471;SDS011;47337;54.068;12.114;2023-05-17T06:28:23;10.55;;;1.38;;
61471;SDS011;47337;54.068;12.114;2023-05-17T06:30:49;6.75;;;1.58;;
61471;SDS011;47337;54.068;12.114;2023-05-17T06:33:14;6.78;;;1.70;;
61471;SDS011;47337;54.068;12.114;2023-05-17T06:35:39;8.63;;;2.10;;
61471;SDS011;47337;54.068;12.114;2023-05-17T06:38:05;6.40;;;2.08;;
61471;SDS011;47337;54.068;12.114;2023-05-17T06:40:30;9.23;;;1.92;;
61471;SDS011;47337;54.068;12.114;2023-05-17T06:42:58;9.80;;;1.40;;
61471;SDS011;47337;54.068;12.114;2023-05-17T06:45:26;10.00;;;1.80;;
61471;SDS011;47337;54.068;12.114;2023-05-17T06:47:51;10.02;;;1.63;;
61471;SDS011;47337;54.068;12.114;2023-05-17T06:50:19;8.80;;;1.90;;
61471;SDS011;47337;54.068;12.114;2023-05-17T06:52:47;13.45;;;2.05;;
61471;SDS011;47337;54.068;12.114;2023-05-17T06:55:12;8.27;;;2.00;;
61471;SDS011;47337;54.068;12.114;2023-05-17T06:57:38;8.10;;;2.40;;
61471;SDS011;47337;54.068;12.114;2023-05-17T07:00:03;10.25;;;1.83;;
61471;SDS011;47337;54.068;12.114;2023-05-17T07:02:34;9.15;;;1.85;;
61471;SDS011;47337;54.068;12.114;2023-05-17T07:05:00;6.68;;;1.92;;
61471;SDS011;47337;54.068;12.114;2023-05-17T07:07:26;10.23;;;1.77;;
61471;SDS011;47337;54.068;12.114;2023-05-17T07:09:56;6.80;;;1.92;;
61471;SDS011;47337;54.068;12.114;2023-05-17T07:12:21;13.63;;;1.70;;
61471;SDS011;47337;54.068;12.114;2023-05-17T07:14:49;3.53;;;1.42;;
61471;SDS011;47337;54.068;12.114;2023-05-17T07:17:16;10.40;;;1.90;;
61471;SDS011;47337;54.068;12.114;2023-05-17T07:19:41;8.20;;;2.03;;
61471;SDS011;47337;54.068;12.114;2023-05-17T07:22:07;10.40;;;2.30;;
61471;SDS011;47337;54.068;12.114;2023-05-17T07:24:32;9.68;;;1.70;;
61471;SDS011;47337;54.068;12.114;2023-05-17T07:27:00;8.32;;;1.70;;
61471;SDS011;47337;54.068;12.114;2023-05-17T07:29:26;6.78;;;1.70;;
61471;SDS011;47337;54.068;12.114;2023-05-17T07:31:53;12.23;;;2.20;;
61471;SDS011;47337;54.068;12.114;2023-05-17T07:34:21;11.65;;;2.35;;
61471;SDS011;47337;54.068;12.114;2023-05-17T07:36:46;14.23;;;2.00;;
61471;SDS011;47337;54.068;12.114;2023-05-17T07:39:12;5.10;;;1.40;;
61471;SDS011;47337;54.068;12.114;2023-05-17T07:41:37;6.68;;;2.75;;
61471;SDS011;47337;54.068;12.114;2023-05-17T07:44:03;7.25;;;1.63;;
61471;SDS011;47337;54.068;12.114;2023-05-17T07:46:29;6.75;;;1.98;;
61471;SDS011;47337;54.068;12.114;2023-05-17T07:48:54;9.57;;;1.73;;
61471;SDS011;47337;54.068;12.114;2023-05-17T07:51:20;8.43;;;1.95;;
61471;SDS011;47337;54.068;12.114;2023-05-17T07:53:45;5.90;;;1.63;;
61471;SDS011;47337;54.068;12.114;2023-05-17T07:56:13;6.80;;;1.90;;
61471;SDS011;47337;54.068;12.114;2023-05-17T07:58:38;10.10;;;2.08;;
61471;SDS011;47337;54.068;12.114;2023-05-17T08:01:06;8.77;;;1.80;;
61471;SDS011;47337;54.068;12.114;2023-05-17T08:03:33;10.00;;;1.80;;
61471;SDS011;47337;54.068;12.114;2023-05-17T08:06:01;7.53;;;1.67;;
61471;SDS011;47337;54.068;12.114;2023-05-17T08:08:27;5.40;;;1.58;;
61471;SDS011;47337;54.068;12.114;2023-05-17T08:10:52;5.43;;;1.33;;
61471;SDS011;47337;54.068;12.114;2023-05-17T08:13:18;11.32;;;1.60;;
61471;SDS011;47337;54.068;12.114;2023-05-17T08:15:43;7.68;;;1.80;;
61471;SDS011;47337;54.068;12.114;2023-05-17T08:18:08;7.05;;;1.92;;
61471;SDS011;47337;54.068;12.114;2023-05-17T08:20:34;8.13;;;1.92;;
61471;SDS011;47337;54.068;12.114;2023-05-17T08:23:00;7.93;;;2.00;;
61471;SDS011;47337;54.068;12.114;2023-05-17T08:25:25;7.95;;;1.90;;
61471;SDS011;47337;54.068;12.114;2023-05-17T08:27:55;11.38;;;2.25;;
61471;SDS011;47337;54.068;12.114;2023-05-17T08:30:21;11.77;;;1.80;;
61471;SDS011;47337;54.068;12.114;2023-05-17T08:32:49;10.48;;;1.90;;
61471;SDS011;47337;54.068;12.114;2023-05-17T08:35:14;9.85;;;1.75;;
61471;SDS011;47337;54.068;12.114;2023-05-17T08:37:40;11.77;;;1.80;;
61471;SDS011;47337;54.068;12.114;2023-05-17T08:40:07;5.05;;;1.90;;
61471;SDS011;47337;54.068;12.114;2023-05-17T08:42:33;6.75;;;1.45;;
61471;SDS011;47337;54.068;12.114;2023-05-17T08:45:00;10.45;;;1.50;;
61471;SDS011;47337;54.068;12.114;2023-05-17T08:47:26;5.38;;;1.80;;
61471;SDS011;47337;54.068;12.114;2023-05-17T08:49:56;9.50;;;1.85;;
61471;SDS011;47337;54.068;12.114;2023-05-17T08:52:26;5.88;;;1.40;;
61471;SDS011;47337;54.068;12.114;2023-05-17T08:54:54;8.10;;;2.05;;
61471;SDS011;47337;54.068;12.114;2023-05-17T08:57:19;9.50;;;2.33;;
61471;SDS011;47337;54.068;12.114;2023-05-17T08:59:48;4.45;;;1.27;;
61471;SDS011;47337;54.068;12.114;2023-05-17T09:02:18;11.73;;;1.75;;
61471;SDS011;47337;54.068;12.114;2023-05-17T09:04:44;12.30;;;2.08;;
61471;SDS011;47337;54.068;12.114;2023-05-17T09:07:10;12.10;;;1.75;;
61471;SDS011;47337;54.068;12.114;2023-05-17T09:09:38;9.45;;;1.60;;
61471;SDS011;47337;54.068;12.114;2023-05-17T09:12:06;7.50;;;1.20;;
61471;SDS011;47337;54.068;12.114;2023-05-17T09:14:34;10.38;;;1.20;;
61471;SDS011;47337;54.068;12.114;2023-05-17T09:17:00;5.00;;;0.98;;
61471;SDS011;47337;54.068;12.114;2023-05-17T09:19:25;7.75;;;1.50;;
61471;SDS011;47337;54.068;12.114;2023-05-17T09:21:54;2.85;;;1.30;;
61471;SDS011;47337;54.068;12.114;2023-05-17T09:24:26;4.53;;;0.90;;
61471;SDS011;47337;54.068;12.114;2023-05-17T09:27:02;9.52;;;1.60;;
61471;SDS011;47337;54.068;12.114;2023-05-17T09:29:31;3.53;;;1.13;;
61471;SDS011;47337;54.068;12.114;2023-05-17T09:32:14;4.88;;;1.20;;
61471;SDS011;47337;54.068;12.114;2023-05-17T09:34:41;7.35;;;1.58;;
61471;SDS011;47337;54.068;12.114;2023-05-17T09:37:16;5.25;;;1.23;;
61471;SDS011;47337;54.068;12.114;2023-05-17T09:39:45;7.57;;;1.80;;
61471;SDS011;47337;54.068;12.114;2023-05-17T09:42:14;7.53;;;1.42;;
61471;SDS011;47337;54.068;12.114;2023-05-17T09:44:47;5.50;;;1.77;;
61471;SDS011;47337;54.068;12.114;2023-05-17T09:47:20;5.40;;;1.15;;
61471;SDS011;47337;54.068;12.114;2023-05-17T09:49:49;7.55;;;1.50;;
61471;SDS011;47337;54.068;12.114;2023-05-17T09:52:18;5.22;;;1.63;;
61471;SDS011;47337;54.068;12.114;2023-05-17T09:54:51;10.07;;;1.88;;
61471;SDS011;47337;54.068;12.114;2023-05-17T09:57:21;7.68;;;1.73;;
61471;SDS011;47337;54.068;12.114;2023-05-17T09:59:49;10.43;;;1.77;;
61471;SDS011;47337;54.068;12.114;2023-05-17T10:02:19;4.32;;;1.58;;
61471;SDS011;47337;54.068;12.114;2023-05-17T10:04:49;6.57;;;1.58;;
61471;SDS011;47337;54.068;12.114;2023-05-17T10:07:19;7.05;;;1.45;;
61471;SDS011;47337;54.068;12.114;2023-05-17T10:09:49;7.03;;;1.60;;
61471;SDS011;47337;54.068;12.114;2023-05-17T10:12:20;4.38;;;1.45;;
61471;SDS011;47337;54.068;12.114;2023-05-17T10:14:47;6.97;;;1.65;;
61471;SDS011;47337;54.068;12.114;2023-05-17T10:17:13;9.40;;;1.60;;
61471;SDS011;47337;54.068;12.114;2023-05-17T10:19:39;5.63;;;1.83;;
61471;SDS011;47337;54.068;12.114;2023-05-17T10:22:05;9.68;;;1.58;;
61471;SDS011;47337;54.068;12.114;2023-05-17T10:24:31;7.53;;;1.25;;
61471;SDS011;47337;54.068;12.114;2023-05-17T10:26:58;11.15;;;1.55;;
61471;SDS011;47337;54.068;12.114;2023-05-17T10:29:24;5.00;;;1.23;;
61471;SDS011;47337;54.068;12.114;2023-05-17T10:31:50;5.03;;;1.05;;
61471;SDS011;47337;54.068;12.114;2023-05-17T10:34:16;7.80;;;1.73;;
61471;SDS011;47337;54.068;12.114;2023-05-17T10:36:43;2.60;;;0.80;;
61471;SDS011;47337;54.068;12.114;2023-05-17T10:39:09;4.75;;;1.00;;
61471;SDS011;47337;54.068;12.114;2023-05-17T10:41:38;2.05;;;0.90;;
61471;SDS011;47337;54.068;12.114;2023-05-17T10:44:06;4.90;;;1.20;;
61471;SDS011;47337;54.068;12.114;2023-05-17T10:46:35;3.88;;;1.42;;
61471;SDS011;47337;54.068;12.114;2023-05-17T10:49:01;10.40;;;1.70;;
61471;SDS011;47337;54.068;12.114;2023-05-17T10:51:30;9.48;;;1.83;;
61471;SDS011;47337;54.068;12.114;2023-05-17T10:56:33;9.43;;;2.33;;
61471;SDS011;47337;54.068;12.114;2023-05-17T11:15:08;6.55;;;1.23;;
61471;SDS011;47337;54.068;12.114;2023-05-17T11:22:41;6.60;;;1.60;;
61471;SDS011;47337;54.068;12.114;2023-05-17T11:25:10;3.85;;;1.20;;
61471;SDS011;47337;54.068;12.114;2023-05-17T11:27:43;8.50;;;0.85;;
61471;SDS011;47337;54.068;12.114;2023-05-17T11:30:28;7.75;;;1.58;;
61471;SDS011;47337;54.068;12.114;2023-05-17T11:32:59;7.15;;;1.40;;
61471;SDS011;47337;54.068;12.114;2023-05-17T11:35:27;4.95;;;1.48;;
61471;SDS011;47337;54.068;12.114;2023-05-17T11:40:58;3.67;;;1.10;;
61471;SDS011;47337;54.068;12.114;2023-05-17T11:43:43;4.90;;;1.00;;
61471;SDS011;47337;54.068;12.114;2023-05-17T11:46:15;5.85;;;1.13;;
61471;SDS011;47337;54.068;12.114;2023-05-17T11:51:11;6.93;;;1.23;;
61471;SDS011;47337;54.068;12.114;2023-05-17T11:53:44;5.63;;;1.40;;
61471;SDS011;47337;54.068;12.114;2023-05-17T11:56:11;8.10;;;1.50;;
61471;SDS011;47337;54.068;12.114;2023-05-17T11:58:37;9.38;;;1.10;;
61471;SDS011;47337;54.068;12.114;2023-05-17T12:01:03;6.30;;;1.60;;
61471;SDS011;47337;54.068;12.114;2023-05-17T12:03:29;4.88;;;1.02;;
61471;SDS011;47337;54.068;12.114;2023-05-17T12:06:08;7.47;;;1.30;;
61471;SDS011;47337;54.068;12.114;2023-05-17T12:08:42;8.90;;;1.70;;
61471;SDS011;47337;54.068;12.114;2023-05-17T12:11:09;3.47;;;1.10;;
61471;SDS011;47337;54.068;12.114;2023-05-17T12:13:36;6.28;;;0.90;;
61471;SDS011;47337;54.068;12.114;2023-05-17T12:16:10;5.85;;;1.25;;
61471;SDS011;47337;54.068;12.114;2023-05-17T12:21:09;5.95;;;1.05;;
61471;SDS011;47337;54.068;12.114;2023-05-17T12:23:38;11.05;;;1.35;;
61471;SDS011;47337;54.068;12.114;2023-05-17T12:26:13;7.43;;;1.52;;
61471;SDS011;47337;54.068;12.114;2023-05-17T12:28:43;5.90;;;1.15;;
61471;SDS011;47337;54.068;12.114;2023-05-17T12:31:13;6.15;;;1.50;;
61471;SDS011;47337;54.068;12.114;2023-05-17T12:33:47;6.13;;;1.50;;
61471;SDS011;47337;54.068;12.114;2023-05-17T12:36:14;6.20;;;1.45;;
61471;SDS011;47337;54.068;12.114;2023-05-17T12:38:43;9.40;;;1.63;;
61471;SDS011;47337;54.068;12.114;2023-05-17T12:41:11;7.80;;;1.52;;
61471;SDS011;47337;54.068;12.114;2023-05-17T12:43:39;5.20;;;1.25;;
61471;SDS011;47337;54.068;12.114;2023-05-17T12:46:05;7.82;;;1.20;;
61471;SDS011;47337;54.068;12.114;2023-05-17T12:48:39;5.65;;;1.17;;
61471;SDS011;47337;54.068;12.114;2023-05-17T12:51:09;6.15;;;1.63;;
61471;SDS011;47337;54.068;12.114;2023-05-17T12:56:14;3.95;;;1.20;;
61471;SDS011;47337;54.068;12.114;2023-05-17T12:58:46;7.18;;;1.25;;
61471;SDS011;47337;54.068;12.114;2023-05-17T13:04:12;3.33;;;0.95;;
61471;SDS011;47337;54.068;12.114;2023-05-17T13:06:58;4.10;;;1.00;;
61471;SDS011;47337;54.068;12.114;2023-05-17T13:09:26;4.97;;;1.27;;
61471;SDS011;47337;54.068;12.114;2023-05-17T13:11:56;4.28;;;0.88;;
61471;SDS011;47337;54.068;12.114;2023-05-17T13:16:57;5.13;;;1.08;;
61471;SDS011;47337;54.068;12.114;2023-05-17T13:19:22;7.18;;;0.95;;
61471;SDS011;47337;54.068;12.114;2023-05-17T13:21:47;5.32;;;1.77;;
61471;SDS011;47337;54.068;12.114;2023-05-17T13:24:13;4.25;;;1.02;;
61471;SDS011;47337;54.068;12.114;2023-05-17T13:26:38;5.22;;;1.73;;
61471;SDS011;47337;54.068;12.114;2023-05-17T13:29:06;7.50;;;0.90;;
61471;SDS011;47337;54.068;12.114;2023-05-17T13:31:34;5.40;;;1.10;;
61471;SDS011;47337;54.068;12.114;2023-05-17T13:33:59;7.03;;;1.08;;
61471;SDS011;47337;54.068;12.114;2023-05-17T13:36:25;6.50;;;1.52;;
61471;SDS011;47337;54.068;12.114;2023-05-17T13:38:55;5.97;;;1.17;;
61471;SDS011;47337;54.068;12.114;2023-05-17T13:41:21;6.22;;;1.15;;
61471;SDS011;47337;54.068;12.114;2023-05-17T13:43:47;8.48;;;1.10;;
61471;SDS011;47337;54.068;12.114;2023-05-17T13:46:13;5.03;;;1.05;;
61471;SDS011;47337;54.068;12.114;2023-05-17T13:48:40;6.47;;;1.35;;
61471;SDS011;47337;54.068;12.114;2023-05-17T13:51:06;7.50;;;0.93;;
61471;SDS011;47337;54.068;12.114;2023-05-17T13:53:33;5.50;;;0.93;;
61471;SDS011;47337;54.068;12.114;2023-05-17T13:55:59;4.40;;;1.20;;
61471;SDS011;47337;54.068;12.114;2023-05-17T13:58:27;6.65;;;0.95;;
61471;SDS011;47337;54.068;12.114;2023-05-17T14:00:55;9.32;;;1.00;;
61471;SDS011;47337;54.068;12.114;2023-05-17T14:03:23;6.68;;;1.10;;
61471;SDS011;47337;54.068;12.114;2023-05-17T14:05:51;8.88;;;1.48;;
61471;SDS011;47337;54.068;12.114;2023-05-17T14:08:17;2.92;;;0.93;;
61471;SDS011;47337;54.068;12.114;2023-05-17T14:10:44;3.58;;;0.77;;
61471;SDS011;47337;54.068;12.114;2023-05-17T14:13:11;6.82;;;1.30;;
61471;SDS011;47337;54.068;12.114;2023-05-17T14:15:37;5.63;;;0.90;;
61471;SDS011;47337;54.068;12.114;2023-05-17T14:18:04;7.82;;;1.30;;
61471;SDS011;47337;54.068;12.114;2023-05-17T14:20:32;8.45;;;1.30;;
61471;SDS011;47337;54.068;12.114;2023-05-17T14:22:58;5.60;;;1.15;;
61471;SDS011;47337;54.068;12.114;2023-05-17T14:25:24;5.85;;;1.10;;
61471;SDS011;47337;54.068;12.114;2023-05-17T14:27:50;4.68;;;1.00;;
61471;SDS011;47337;54.068;12.114;2023-05-17T14:30:19;4.00;;;1.00;;
61471;SDS011;47337;54.068;12.114;2023-05-17T14:32:45;6.50;;;1.02;;
61471;SDS011;47337;54.068;12.114;2023-05-17T14:35:10;3.85;;;0.90;;
61471;SDS011;47337;54.068;12.114;2023-05-17T14:37:38;5.82;;;1.67;;
61471;SDS011;47337;54.068;12.114;2023-05-17T14:40:04;7.38;;;1.20;;
61471;SDS011;47337;54.068;12.114;2023-05-17T14:42:33;7.07;;;1.08;;
61471;SDS011;47337;54.068;12.114;2023-05-17T14:44:59;4.43;;;1.20;;
61471;SDS011;47337;54.068;12.114;2023-05-17T14:47:25;5.55;;;1.40;;
61471;SDS011;47337;54.068;12.114;2023-05-17T14:49:50;9.65;;;1.30;;
61471;SDS011;47337;54.068;12.114;2023-05-17T14:52:16;5.45;;;1.00;;
61471;SDS011;47337;54.068;12.114;2023-05-17T14:54:41;5.75;;;1.20;;
61471;SDS011;47337;54.068;12.114;2023-05-17T14:57:09;12.23;;;1.45;;
61471;SDS011;47337;54.068;12.114;2023-05-17T14:59:38;3.63;;;0.82;;
61471;SDS011;47337;54.068;12.114;2023-05-17T15:02:04;4.35;;;1.23;;
61471;SDS011;47337;54.068;12.114;2023-05-17T15:04:31;2.65;;;0.98;;
61471;SDS011;47337;54.068;12.114;2023-05-17T15:06:57;6.97;;;1.38;;
61471;SDS011;47337;54.068;12.114;2023-05-17T15:09:23;7.70;;;1.35;;
61471;SDS011;47337;54.068;12.114;2023-05-17T15:11:48;6.38;;;0.90;;
61471;SDS011;47337;54.068;12.114;2023-05-17T15:14:14;5.20;;;1.08;;
61471;SDS011;47337;54.068;12.114;2023-05-17T15:16:46;5.25;;;1.00;;
61471;SDS011;47337;54.068;12.114;2023-05-17T15:19:12;5.40;;;0.82;;
61471;SDS011;47337;54.068;12.114;2023-05-17T15:21:38;4.93;;;0.95;;
61471;SDS011;47337;54.068;12.114;2023-05-17T15:24:03;3.25;;;0.82;;
61471;SDS011;47337;54.068;12.114;2023-05-17T15:26:29;5.85;;;1.40;;